sensor_id;sensor_type;location;lat;lon;timestamp;P1;durP1;ratioP1;P2;durP2;ratioP2
27642;SDS011;15053;48.618;10.024;2023-08-24T00:00:27;12.50;;;8.35;;
27642;SDS011;15053;48.618;10.024;2023-08-24T00:02:54;9.90;;;7.68;;
27642;SDS011;15053;48.618;10.024;2023-08-24T00:05:20;8.75;;;7.85;;
27642;SDS011;15053;48.618;10.024;2023-08-24T00:07:47;10.30;;;7.97;;
27642;SDS011;15053;48.618;10.024;2023-08-24T00:10:15;12.02;;;8.48;;
27642;SDS011;15053;48.618;10.024;2023-08-24T00:12:41;8.60;;;7.68;;
27642;SDS011;15053;48.618;10.024;2023-08-24T00:15:08;8.75;;;7.43;;
27642;SDS011;15053;48.618;10.024;2023-08-24T00:17:35;12.15;;;8.45;;
27642;SDS011;15053;48.618;10.024;2023-08-24T00:20:02;10.80;;;7.57;;
27642;SDS011;15053;48.618;10.024;2023-08-24T00:22:30;12.02;;;7.72;;
27642;SDS011;15053;48.618;10.024;2023-08-24T00:24:57;10.98;;;7.90;;
27642;SDS011;15053;48.618;10.024;2023-08-24T00:27:24;10.70;;;8.07;;
27642;SDS011;15053;48.618;10.024;2023-08-24T00:29:51;8.80;;;7.68;;
27642;SDS011;15053;48.618;10.024;2023-08-24T00:32:17;10.63;;;7.70;;
27642;SDS011;15053;48.618;10.024;2023-08-24T00:34:44;13.27;;;7.82;;
27642;SDS011;15053;48.618;10.024;2023-08-24T00:37:11;9.55;;;7.97;;
27642;SDS011;15053;48.618;10.024;2023-08-24T00:39:38;13.05;;;8.18;;
27642;SDS011;15053;48.618;10.024;2023-08-24T00:42:05;10.57;;;8.07;;
27642;SDS011;15053;48.618;10.024;2023-08-24T00:44:32;11.32;;;7.28;;
27642;SDS011;15053;48.618;10.024;2023-08-24T00:46:58;10.45;;;7.65;;
27642;SDS011;15053;48.618;10.024;2023-08-24T00:49:26;10.45;;;7.93;;
27642;SDS011;15053;48.618;10.024;2023-08-24T00:51:52;8.95;;;8.05;;
27642;SDS011;15053;48.618;10.024;2023-08-24T00:54:19;10.70;;;7.80;;
27642;SDS011;15053;48.618;10.024;2023-08-24T00:56:46;11.88;;;8.75;;
27642;SDS011;15053;48.618;10.024;2023-08-24T00:59:12;10.02;;;9.13;;
27642;SDS011;15053;48.618;10.024;2023-08-24T01:01:39;10.50;;;8.93;;
27642;SDS011;15053;48.618;10.024;2023-08-24T01:04:08;14.75;;;8.73;;
27642;SDS011;15053;48.618;10.024;2023-08-24T01:06:37;11.25;;;8.32;;
27642;SDS011;15053;48.618;10.024;2023-08-24T01:09:03;9.90;;;8.82;;
27642;SDS011;15053;48.618;10.024;2023-08-24T01:17:33;10.43;;;9.07;;
27642;SDS011;15053;48.618;10.024;2023-08-24T01:20:02;10.27;;;8.85;;
27642;SDS011;15053;48.618;10.024;2023-08-24T01:25:32;11.07;;;9.25;;
27642;SDS011;15053;48.618;10.024;2023-08-24T01:28:06;11.60;;;9.48;;
27642;SDS011;15053;48.618;10.024;2023-08-24T01:30:35;10.77;;;8.95;;
27642;SDS011;15053;48.618;10.024;2023-08-24T01:33:03;16.30;;;10.00;;
27642;SDS011;15053;48.618;10.024;2023-08-24T01:35:31;12.13;;;9.45;;
27642;SDS011;15053;48.618;10.024;2023-08-24T01:37:58;12.38;;;9.70;;
27642;SDS011;15053;48.618;10.024;2023-08-24T01:43:26;11.75;;;9.75;;
27642;SDS011;15053;48.618;10.024;2023-08-24T01:46:08;11.60;;;9.38;;
27642;SDS011;15053;48.618;10.024;2023-08-24T01:48:38;11.50;;;10.23;;
27642;SDS011;15053;48.618;10.024;2023-08-24T01:51:05;11.30;;;10.13;;
27642;SDS011;15053;48.618;10.024;2023-08-24T01:53:34;11.38;;;9.60;;
27642;SDS011;15053;48.618;10.024;2023-08-24T01:56:01;10.55;;;9.43;;
27642;SDS011;15053;48.618;10.024;2023-08-24T01:58:28;13.38;;;10.65;;
27642;SDS011;15053;48.618;10.024;2023-08-24T10:01:49;19.98;;;7.97;;
27642;SDS011;15053;48.618;10.024;2023-08-24T10:04:25;10.65;;;7.32;;
27642;SDS011;15053;48.618;10.024;2023-08-24T10:07:05;11.15;;;7.32;;
27642;SDS011;15053;48.618;10.024;2023-08-24T10:12:23;8.05;;;7.25;;
27642;SDS011;15053;48.618;10.024;2023-08-24T10:14:58;12.77;;;7.10;;
27642;SDS011;15053;48.618;10.024;2023-08-24T10:17:30;15.57;;;6.90;;
27642;SDS011;15053;48.618;10.024;2023-08-24T10:19:59;10.90;;;6.78;;
27642;SDS011;15053;48.618;10.024;2023-08-24T10:22:35;7.47;;;6.75;;
27642;SDS011;15053;48.618;10.024;2023-08-24T10:25:03;9.88;;;6.57;;
27642;SDS011;15053;48.618;10.024;2023-08-24T10:27:29;10.93;;;7.50;;
27642;SDS011;15053;48.618;10.024;2023-08-24T10:29:56;10.65;;;7.32;;
27642;SDS011;15053;48.618;10.024;2023-08-24T10:32:25;11.25;;;7.20;;
27642;SDS011;15053;48.618;10.024;2023-08-24T10:34:53;9.32;;;6.80;;
27642;SDS011;15053;48.618;10.024;2023-08-24T10:37:26;9.52;;;6.65;;
27642;SDS011;15053;48.618;10.024;2023-08-24T10:39:54;9.43;;;6.28;;
27642;SDS011;15053;48.618;10.024;2023-08-24T10:42:21;8.05;;;6.93;;
27642;SDS011;15053;48.618;10.024;2023-08-24T10:44:47;8.32;;;6.75;;
27642;SDS011;15053;48.618;10.024;2023-08-24T10:47:18;12.60;;;6.53;;
27642;SDS011;15053;48.618;10.024;2023-08-24T10:54:56;9.15;;;6.35;;
27642;SDS011;15053;48.618;10.024;2023-08-24T11:00:04;7.35;;;6.13;;
27642;SDS011;15053;48.618;10.024;2023-08-24T11:02:44;7.50;;;6.10;;
27642;SDS011;15053;48.618;10.024;2023-08-24T11:05:22;6.20;;;5.60;;
27642;SDS011;15053;48.618;10.024;2023-08-24T11:08:01;6.75;;;5.57;;
27642;SDS011;15053;48.618;10.024;2023-08-24T11:13:17;11.93;;;5.78;;
27642;SDS011;15053;48.618;10.024;2023-08-24T11:15:49;9.07;;;5.60;;
27642;SDS011;15053;48.618;10.024;2023-08-24T11:20:50;5.32;;;4.60;;
27642;SDS011;15053;48.618;10.024;2023-08-24T11:23:19;7.05;;;5.68;;
27642;SDS011;15053;48.618;10.024;2023-08-24T11:25:47;9.32;;;5.50;;
27642;SDS011;15053;48.618;10.024;2023-08-24T11:28:19;5.80;;;5.18;;
27642;SDS011;15053;48.618;10.024;2023-08-24T11:30:46;8.07;;;5.95;;
27642;SDS011;15053;48.618;10.024;2023-08-24T11:33:13;10.57;;;5.43;;
27642;SDS011;15053;48.618;10.024;2023-08-24T11:35:43;5.43;;;4.28;;
27642;SDS011;15053;48.618;10.024;2023-08-24T11:38:11;6.38;;;5.00;;
27642;SDS011;15053;48.618;10.024;2023-08-24T11:40:38;5.78;;;5.13;;
27642;SDS011;15053;48.618;10.024;2023-08-24T11:43:05;5.68;;;4.78;;
27642;SDS011;15053;48.618;10.024;2023-08-24T11:45:32;10.90;;;4.80;;
27642;SDS011;15053;48.618;10.024;2023-08-24T11:48:01;6.05;;;4.65;;
27642;SDS011;15053;48.618;10.024;2023-08-24T11:50:28;5.97;;;4.75;;
27642;SDS011;15053;48.618;10.024;2023-08-24T11:52:56;5.40;;;4.90;;
27642;SDS011;15053;48.618;10.024;2023-08-24T11:55:23;5.13;;;4.63;;
27642;SDS011;15053;48.618;10.024;2023-08-24T11:57:50;7.20;;;4.78;;
27642;SDS011;15053;48.618;10.024;2023-08-24T12:00:18;8.27;;;5.10;;
27642;SDS011;15053;48.618;10.024;2023-08-24T12:02:47;5.55;;;4.68;;
27642;SDS011;15053;48.618;10.024;2023-08-24T12:05:24;10.68;;;5.60;;
27642;SDS011;15053;48.618;10.024;2023-08-24T12:07:52;7.00;;;5.07;;
27642;SDS011;15053;48.618;10.024;2023-08-24T12:10:20;8.95;;;4.75;;
27642;SDS011;15053;48.618;10.024;2023-08-24T12:12:47;7.93;;;5.07;;
27642;SDS011;15053;48.618;10.024;2023-08-24T12:15:18;7.75;;;5.30;;
27642;SDS011;15053;48.618;10.024;2023-08-24T12:17:48;5.68;;;5.10;;
27642;SDS011;15053;48.618;10.024;2023-08-24T12:20:19;6.38;;;5.57;;
27642;SDS011;15053;48.618;10.024;2023-08-24T12:22:54;7.28;;;5.20;;
27642;SDS011;15053;48.618;10.024;2023-08-24T12:25:22;7.18;;;4.97;;
27642;SDS011;15053;48.618;10.024;2023-08-24T12:27:52;9.68;;;5.53;;
27642;SDS011;15053;48.618;10.024;2023-08-24T12:30:42;6.82;;;5.70;;
27642;SDS011;15053;48.618;10.024;2023-08-24T12:33:26;6.43;;;5.40;;
27642;SDS011;15053;48.618;10.024;2023-08-24T12:35:53;8.75;;;5.50;;
27642;SDS011;15053;48.618;10.024;2023-08-24T12:38:22;10.07;;;4.97;;
27642;SDS011;15053;48.618;10.024;2023-08-24T12:40:50;11.38;;;5.10;;
27642;SDS011;15053;48.618;10.024;2023-08-24T12:43:17;8.35;;;5.50;;
27642;SDS011;15053;48.618;10.024;2023-08-24T12:45:43;8.40;;;5.68;;
27642;SDS011;15053;48.618;10.024;2023-08-24T12:48:10;7.65;;;5.97;;
27642;SDS011;15053;48.618;10.024;2023-08-24T12:50:38;10.40;;;6.00;;
27642;SDS011;15053;48.618;10.024;2023-08-24T12:53:05;6.85;;;5.57;;
27642;SDS011;15053;48.618;10.024;2023-08-24T12:55:35;6.25;;;5.63;;
27642;SDS011;15053;48.618;10.024;2023-08-24T12:58:06;6.63;;;4.90;;
27642;SDS011;15053;48.618;10.024;2023-08-24T13:00:32;9.95;;;5.30;;
27642;SDS011;15053;48.618;10.024;2023-08-24T13:02:59;7.07;;;5.20;;
27642;SDS011;15053;48.618;10.024;2023-08-24T13:05:26;10.95;;;6.53;;
27642;SDS011;15053;48.618;10.024;2023-08-24T13:07:52;8.07;;;5.18;;
27642;SDS011;15053;48.618;10.024;2023-08-24T13:10:19;9.07;;;6.68;;
27642;SDS011;15053;48.618;10.024;2023-08-24T13:12:45;7.55;;;4.80;;
27642;SDS011;15053;48.618;10.024;2023-08-24T13:15:12;10.25;;;5.68;;
27642;SDS011;15053;48.618;10.024;2023-08-24T13:17:39;8.00;;;5.53;;
27642;SDS011;15053;48.618;10.024;2023-08-24T13:20:06;9.63;;;6.38;;
27642;SDS011;15053;48.618;10.024;2023-08-24T13:22:33;7.45;;;5.28;;
27642;SDS011;15053;48.618;10.024;2023-08-24T13:25:00;6.85;;;4.95;;
27642;SDS011;15053;48.618;10.024;2023-08-24T13:27:26;8.63;;;5.28;;
27642;SDS011;15053;48.618;10.024;2023-08-24T13:29:53;10.02;;;5.85;;
27642;SDS011;15053;48.618;10.024;2023-08-24T13:32:23;8.65;;;5.43;;
27642;SDS011;15053;48.618;10.024;2023-08-24T13:34:49;7.55;;;5.35;;
27642;SDS011;15053;48.618;10.024;2023-08-24T13:37:17;7.60;;;5.22;;
27642;SDS011;15053;48.618;10.024;2023-08-24T13:39:44;9.30;;;5.65;;
27642;SDS011;15053;48.618;10.024;2023-08-24T13:42:11;8.70;;;5.32;;
27642;SDS011;15053;48.618;10.024;2023-08-24T13:44:39;9.80;;;5.45;;
27642;SDS011;15053;48.618;10.024;2023-08-24T13:47:05;7.53;;;5.47;;
27642;SDS011;15053;48.618;10.024;2023-08-24T13:49:32;7.70;;;5.95;;
27642;SDS011;15053;48.618;10.024;2023-08-24T13:52:06;8.93;;;5.30;;
27642;SDS011;15053;48.618;10.024;2023-08-24T13:54:33;13.10;;;5.05;;
27642;SDS011;15053;48.618;10.024;2023-08-24T13:57:00;10.95;;;5.65;;
27642;SDS011;15053;48.618;10.024;2023-08-24T13:59:28;9.15;;;5.57;;
27642;SDS011;15053;48.618;10.024;2023-08-24T14:01:55;10.30;;;5.75;;
27642;SDS011;15053;48.618;10.024;2023-08-24T14:04:21;7.47;;;5.25;;
27642;SDS011;15053;48.618;10.024;2023-08-24T14:06:48;9.77;;;5.90;;
27642;SDS011;15053;48.618;10.024;2023-08-24T14:09:15;9.75;;;5.43;;
27642;SDS011;15053;48.618;10.024;2023-08-24T14:11:41;9.95;;;5.93;;
27642;SDS011;15053;48.618;10.024;2023-08-24T14:14:09;8.50;;;5.80;;
27642;SDS011;15053;48.618;10.024;2023-08-24T14:16:36;8.98;;;5.30;;
27642;SDS011;15053;48.618;10.024;2023-08-24T14:19:03;11.57;;;6.07;;
27642;SDS011;15053;48.618;10.024;2023-08-24T14:21:31;13.80;;;6.35;;
27642;SDS011;15053;48.618;10.024;2023-08-24T14:24:01;7.72;;;6.00;;
27642;SDS011;15053;48.618;10.024;2023-08-24T14:26:27;8.52;;;6.35;;
27642;SDS011;15053;48.618;10.024;2023-08-24T14:28:55;12.98;;;6.30;;
27642;SDS011;15053;48.618;10.024;2023-08-24T14:31:29;17.73;;;6.55;;
27642;SDS011;15053;48.618;10.024;2023-08-24T14:33:56;12.75;;;6.05;;
27642;SDS011;15053;48.618;10.024;2023-08-24T14:36:23;13.90;;;6.40;;
27642;SDS011;15053;48.618;10.024;2023-08-24T14:38:50;17.55;;;6.07;;
27642;SDS011;15053;48.618;10.024;2023-08-24T14:41:19;9.35;;;6.60;;
27642;SDS011;15053;48.618;10.024;2023-08-24T14:43:46;12.77;;;6.78;;
27642;SDS011;15053;48.618;10.024;2023-08-24T14:46:13;8.23;;;6.57;;
27642;SDS011;15053;48.618;10.024;2023-08-24T14:48:40;11.07;;;6.35;;
27642;SDS011;15053;48.618;10.024;2023-08-24T14:51:07;11.57;;;6.28;;
27642;SDS011;15053;48.618;10.024;2023-08-24T14:53:33;15.82;;;6.72;;
27642;SDS011;15053;48.618;10.024;2023-08-24T14:56:00;13.85;;;6.28;;
27642;SDS011;15053;48.618;10.024;2023-08-24T14:58:27;11.73;;;6.28;;
27642;SDS011;15053;48.618;10.024;2023-08-24T15:00:54;11.65;;;6.63;;
27642;SDS011;15053;48.618;10.024;2023-08-24T15:03:23;16.90;;;6.10;;
27642;SDS011;15053;48.618;10.024;2023-08-24T15:06:03;15.65;;;7.30;;
27642;SDS011;15053;48.618;10.024;2023-08-24T15:08:31;13.07;;;6.97;;
27642;SDS011;15053;48.618;10.024;2023-08-24T15:10:59;12.52;;;6.35;;
27642;SDS011;15053;48.618;10.024;2023-08-24T15:13:27;16.75;;;7.13;;
27642;SDS011;15053;48.618;10.024;2023-08-24T15:15:55;11.82;;;6.60;;
27642;SDS011;15053;48.618;10.024;2023-08-24T15:18:23;9.65;;;6.32;;
27642;SDS011;15053;48.618;10.024;2023-08-24T15:20:50;17.00;;;6.55;;
27642;SDS011;15053;48.618;10.024;2023-08-24T15:23:24;19.00;;;6.97;;
27642;SDS011;15053;48.618;10.024;2023-08-24T15:25:53;13.55;;;6.65;;
27642;SDS011;15053;48.618;10.024;2023-08-24T15:28:21;9.82;;;6.35;;
27642;SDS011;15053;48.618;10.024;2023-08-24T15:30:48;13.60;;;7.15;;
27642;SDS011;15053;48.618;10.024;2023-08-24T15:33:16;13.82;;;6.15;;
27642;SDS011;15053;48.618;10.024;2023-08-24T15:35:44;19.45;;;7.53;;
27642;SDS011;15053;48.618;10.024;2023-08-24T15:38:11;14.95;;;6.45;;
27642;SDS011;15053;48.618;10.024;2023-08-24T15:40:38;19.02;;;8.38;;
27642;SDS011;15053;48.618;10.024;2023-08-24T15:43:05;13.93;;;7.78;;
27642;SDS011;15053;48.618;10.024;2023-08-24T15:45:33;15.95;;;7.18;;
27642;SDS011;15053;48.618;10.024;2023-08-24T15:48:00;11.20;;;6.70;;
27642;SDS011;15053;48.618;10.024;2023-08-24T15:50:27;12.43;;;6.82;;
27642;SDS011;15053;48.618;10.024;2023-08-24T15:52:54;18.05;;;6.40;;
27642;SDS011;15053;48.618;10.024;2023-08-24T15:55:27;12.45;;;7.30;;
27642;SDS011;15053;48.618;10.024;2023-08-24T15:57:55;17.80;;;7.55;;
27642;SDS011;15053;48.618;10.024;2023-08-24T16:00:21;18.50;;;6.68;;
27642;SDS011;15053;48.618;10.024;2023-08-24T16:02:48;15.48;;;7.45;;
27642;SDS011;15053;48.618;10.024;2023-08-24T16:05:14;14.02;;;7.55;;
27642;SDS011;15053;48.618;10.024;2023-08-24T16:07:41;14.77;;;7.00;;
27642;SDS011;15053;48.618;10.024;2023-08-24T16:10:08;15.27;;;8.88;;
27642;SDS011;15053;48.618;10.024;2023-08-24T16:12:35;16.25;;;8.43;;
27642;SDS011;15053;48.618;10.024;2023-08-24T16:15:01;15.02;;;8.85;;
27642;SDS011;15053;48.618;10.024;2023-08-24T16:17:29;17.52;;;9.30;;
27642;SDS011;15053;48.618;10.024;2023-08-24T16:19:56;17.08;;;7.28;;
27642;SDS011;15053;48.618;10.024;2023-08-24T16:22:22;25.63;;;11.98;;
27642;SDS011;15053;48.618;10.024;2023-08-24T16:24:49;17.77;;;10.48;;
27642;SDS011;15053;48.618;10.024;2023-08-24T16:27:15;24.00;;;16.23;;
27642;SDS011;15053;48.618;10.024;2023-08-24T16:29:42;49.35;;;28.23;;
27642;SDS011;15053;48.618;10.024;2023-08-24T16:32:08;22.27;;;9.38;;
27642;SDS011;15053;48.618;10.024;2023-08-24T16:34:35;31.27;;;18.48;;
27642;SDS011;15053;48.618;10.024;2023-08-24T16:37:01;14.18;;;7.95;;
27642;SDS011;15053;48.618;10.024;2023-08-24T16:39:29;20.15;;;10.23;;
27642;SDS011;15053;48.618;10.024;2023-08-24T16:41:57;12.82;;;7.93;;
27642;SDS011;15053;48.618;10.024;2023-08-24T16:44:23;13.05;;;7.53;;
27642;SDS011;15053;48.618;10.024;2023-08-24T16:46:50;13.02;;;6.40;;
27642;SDS011;15053;48.618;10.024;2023-08-24T16:49:17;19.48;;;7.38;;
27642;SDS011;15053;48.618;10.024;2023-08-24T16:51:43;10.35;;;6.03;;
27642;SDS011;15053;48.618;10.024;2023-08-24T16:54:10;17.45;;;6.47;;
27642;SDS011;15053;48.618;10.024;2023-08-24T16:56:36;10.98;;;6.10;;
27642;SDS011;15053;48.618;10.024;2023-08-24T16:59:03;12.75;;;5.88;;
27642;SDS011;15053;48.618;10.024;2023-08-24T17:01:29;12.73;;;5.95;;
27642;SDS011;15053;48.618;10.024;2023-08-24T17:03:56;9.55;;;5.00;;
27642;SDS011;15053;48.618;10.024;2023-08-24T17:06:22;10.82;;;6.70;;
27642;SDS011;15053;48.618;10.024;2023-08-24T17:08:49;9.55;;;4.57;;
27642;SDS011;15053;48.618;10.024;2023-08-24T17:11:15;11.30;;;5.95;;
27642;SDS011;15053;48.618;10.024;2023-08-24T17:13:42;7.50;;;4.57;;
27642;SDS011;15053;48.618;10.024;2023-08-24T17:16:08;8.13;;;4.03;;
27642;SDS011;15053;48.618;10.024;2023-08-24T17:18:35;12.30;;;5.43;;
27642;SDS011;15053;48.618;10.024;2023-08-24T17:21:02;12.15;;;6.68;;
27642;SDS011;15053;48.618;10.024;2023-08-24T17:23:29;5.82;;;4.18;;
27642;SDS011;15053;48.618;10.024;2023-08-24T17:25:56;11.35;;;5.40;;
27642;SDS011;15053;48.618;10.024;2023-08-24T17:28:22;6.03;;;4.07;;
27642;SDS011;15053;48.618;10.024;2023-08-24T17:30:50;10.65;;;4.20;;
27642;SDS011;15053;48.618;10.024;2023-08-24T17:33:17;10.18;;;4.30;;
27642;SDS011;15053;48.618;10.024;2023-08-24T17:35:47;5.97;;;3.72;;
27642;SDS011;15053;48.618;10.024;2023-08-24T17:38:14;5.55;;;3.28;;
27642;SDS011;15053;48.618;10.024;2023-08-24T17:40:40;5.05;;;3.28;;
27642;SDS011;15053;48.618;10.024;2023-08-24T17:43:07;5.80;;;3.15;;
27642;SDS011;15053;48.618;10.024;2023-08-24T17:45:33;8.23;;;3.25;;
27642;SDS011;15053;48.618;10.024;2023-08-24T17:48:00;8.98;;;3.08;;
27642;SDS011;15053;48.618;10.024;2023-08-24T17:50:27;3.85;;;2.97;;
27642;SDS011;15053;48.618;10.024;2023-08-24T17:52:53;4.28;;;3.13;;
27642;SDS011;15053;48.618;10.024;2023-08-24T17:55:20;8.52;;;4.40;;
27642;SDS011;15053;48.618;10.024;2023-08-24T17:57:46;9.90;;;3.80;;
27642;SDS011;15053;48.618;10.024;2023-08-24T18:00:13;6.07;;;3.63;;
27642;SDS011;15053;48.618;10.024;2023-08-24T18:02:40;5.43;;;3.53;;
27642;SDS011;15053;48.618;10.024;2023-08-24T18:05:08;4.43;;;3.33;;
27642;SDS011;15053;48.618;10.024;2023-08-24T18:07:34;4.38;;;3.10;;
27642;SDS011;15053;48.618;10.024;2023-08-24T18:10:01;8.88;;;3.55;;
27642;SDS011;15053;48.618;10.024;2023-08-24T18:12:28;4.88;;;3.35;;
27642;SDS011;15053;48.618;10.024;2023-08-24T18:14:54;6.35;;;3.47;;
27642;SDS011;15053;48.618;10.024;2023-08-24T18:17:21;8.80;;;3.80;;
27642;SDS011;15053;48.618;10.024;2023-08-24T18:19:47;6.35;;;3.78;;
27642;SDS011;15053;48.618;10.024;2023-08-24T18:22:14;5.50;;;3.33;;
27642;SDS011;15053;48.618;10.024;2023-08-24T18:24:40;9.27;;;3.55;;
27642;SDS011;15053;48.618;10.024;2023-08-24T18:27:07;6.88;;;3.97;;
27642;SDS011;15053;48.618;10.024;2023-08-24T18:29:33;14.18;;;3.70;;
27642;SDS011;15053;48.618;10.024;2023-08-24T18:32:00;6.50;;;3.78;;
27642;SDS011;15053;48.618;10.024;2023-08-24T18:34:26;4.68;;;3.35;;
27642;SDS011;15053;48.618;10.024;2023-08-24T18:36:53;7.03;;;3.65;;
27642;SDS011;15053;48.618;10.024;2023-08-24T18:39:19;6.03;;;3.42;;
27642;SDS011;15053;48.618;10.024;2023-08-24T18:41:46;12.27;;;3.78;;
27642;SDS011;15053;48.618;10.024;2023-08-24T18:44:16;5.25;;;3.88;;
27642;SDS011;15053;48.618;10.024;2023-08-24T18:46:43;7.07;;;3.60;;
27642;SDS011;15053;48.618;10.024;2023-08-24T18:49:10;6.15;;;4.00;;
27642;SDS011;15053;48.618;10.024;2023-08-24T18:51:36;6.80;;;3.92;;
27642;SDS011;15053;48.618;10.024;2023-08-24T18:54:03;8.68;;;4.20;;
27642;SDS011;15053;48.618;10.024;2023-08-24T18:56:29;6.43;;;4.25;;
27642;SDS011;15053;48.618;10.024;2023-08-24T18:58:56;8.30;;;4.10;;
27642;SDS011;15053;48.618;10.024;2023-08-24T19:01:22;5.00;;;3.90;;
27642;SDS011;15053;48.618;10.024;2023-08-24T19:03:49;5.75;;;4.00;;
27642;SDS011;15053;48.618;10.024;2023-08-24T19:06:15;6.75;;;3.75;;
27642;SDS011;15053;48.618;10.024;2023-08-24T19:08:52;7.25;;;4.50;;
27642;SDS011;15053;48.618;10.024;2023-08-24T19:11:19;4.10;;;3.60;;
27642;SDS011;15053;48.618;10.024;2023-08-24T19:13:45;7.38;;;4.07;;
27642;SDS011;15053;48.618;10.024;2023-08-24T19:16:12;8.88;;;4.05;;
27642;SDS011;15053;48.618;10.024;2023-08-24T19:18:39;10.60;;;4.15;;
27642;SDS011;15053;48.618;10.024;2023-08-24T19:21:07;5.18;;;3.20;;
27642;SDS011;15053;48.618;10.024;2023-08-24T19:23:38;5.25;;;3.95;;
27642;SDS011;15053;48.618;10.024;2023-08-24T19:26:05;7.32;;;3.42;;
27642;SDS011;15053;48.618;10.024;2023-08-24T19:28:31;5.07;;;3.35;;
27642;SDS011;15053;48.618;10.024;2023-08-24T19:30:58;7.68;;;3.10;;
27642;SDS011;15053;48.618;10.024;2023-08-24T19:33:25;6.78;;;3.05;;
27642;SDS011;15053;48.618;10.024;2023-08-24T19:35:52;5.85;;;3.58;;
27642;SDS011;15053;48.618;10.024;2023-08-24T19:38:19;15.98;;;3.92;;
27642;SDS011;15053;48.618;10.024;2023-08-24T19:40:46;16.05;;;4.97;;
27642;SDS011;15053;48.618;10.024;2023-08-24T19:43:12;10.32;;;5.03;;
27642;SDS011;15053;48.618;10.024;2023-08-24T19:45:39;10.40;;;3.85;;
27642;SDS011;15053;48.618;10.024;2023-08-24T19:48:06;8.35;;;3.60;;
27642;SDS011;15053;48.618;10.024;2023-08-24T19:50:32;8.85;;;3.33;;
27642;SDS011;15053;48.618;10.024;2023-08-24T19:52:59;8.60;;;3.60;;
27642;SDS011;15053;48.618;10.024;2023-08-24T19:55:26;7.47;;;3.60;;
27642;SDS011;15053;48.618;10.024;2023-08-24T19:57:53;6.40;;;2.42;;
27642;SDS011;15053;48.618;10.024;2023-08-24T20:00:21;3.88;;;2.40;;
27642;SDS011;15053;48.618;10.024;2023-08-24T20:02:48;6.28;;;2.25;;
27642;SDS011;15053;48.618;10.024;2023-08-24T20:05:17;5.65;;;2.00;;
27642;SDS011;15053;48.618;10.024;2023-08-24T20:07:43;4.05;;;2.08;;
27642;SDS011;15053;48.618;10.024;2023-08-24T20:10:14;3.57;;;1.90;;
27642;SDS011;15053;48.618;10.024;2023-08-24T20:12:43;1.85;;;1.45;;
27642;SDS011;15053;48.618;10.024;2023-08-24T20:15:09;2.72;;;1.40;;
27642;SDS011;15053;48.618;10.024;2023-08-24T20:17:44;3.95;;;1.30;;
27642;SDS011;15053;48.618;10.024;2023-08-24T20:20:13;6.05;;;1.60;;
27642;SDS011;15053;48.618;10.024;2023-08-24T20:22:41;6.15;;;1.60;;
27642;SDS011;15053;48.618;10.024;2023-08-24T20:25:08;5.07;;;2.33;;
27642;SDS011;15053;48.618;10.024;2023-08-24T20:27:35;3.50;;;2.15;;
27642;SDS011;15053;48.618;10.024;2023-08-24T20:30:03;3.47;;;1.35;;
27642;SDS011;15053;48.618;10.024;2023-08-24T20:32:30;5.20;;;1.50;;
27642;SDS011;15053;48.618;10.024;2023-08-24T20:34:57;2.30;;;1.33;;
27642;SDS011;15053;48.618;10.024;2023-08-24T20:37:23;1.70;;;1.15;;
27642;SDS011;15053;48.618;10.024;2023-08-24T20:39:50;2.25;;;1.42;;
27642;SDS011;15053;48.618;10.024;2023-08-24T20:42:18;2.97;;;1.20;;
27642;SDS011;15053;48.618;10.024;2023-08-24T20:44:51;4.28;;;1.80;;
27642;SDS011;15053;48.618;10.024;2023-08-24T20:47:19;1.70;;;1.23;;
27642;SDS011;15053;48.618;10.024;2023-08-24T20:49:47;3.30;;;1.35;;
27642;SDS011;15053;48.618;10.024;2023-08-24T20:52:15;2.63;;;1.33;;
27642;SDS011;15053;48.618;10.024;2023-08-24T20:54:42;7.55;;;1.63;;
27642;SDS011;15053;48.618;10.024;2023-08-24T20:57:09;2.95;;;1.40;;
27642;SDS011;15053;48.618;10.024;2023-08-24T20:59:35;3.53;;;1.63;;
27642;SDS011;15053;48.618;10.024;2023-08-24T21:02:02;2.45;;;1.60;;
27642;SDS011;15053;48.618;10.024;2023-08-24T21:04:28;3.38;;;1.65;;
27642;SDS011;15053;48.618;10.024;2023-08-24T21:06:55;4.60;;;1.65;;
27642;SDS011;15053;48.618;10.024;2023-08-24T21:09:21;3.85;;;2.00;;
27642;SDS011;15053;48.618;10.024;2023-08-24T21:11:48;4.72;;;2.17;;
27642;SDS011;15053;48.618;10.024;2023-08-24T21:14:14;6.32;;;1.67;;
27642;SDS011;15053;48.618;10.024;2023-08-24T21:16:41;3.35;;;1.50;;
27642;SDS011;15053;48.618;10.024;2023-08-24T21:19:07;2.38;;;1.50;;
27642;SDS011;15053;48.618;10.024;2023-08-24T21:21:34;2.22;;;1.60;;
27642;SDS011;15053;48.618;10.024;2023-08-24T21:24:01;2.45;;;1.58;;
27642;SDS011;15053;48.618;10.024;2023-08-24T21:26:28;5.43;;;1.77;;
27642;SDS011;15053;48.618;10.024;2023-08-24T21:28:56;5.65;;;1.80;;
27642;SDS011;15053;48.618;10.024;2023-08-24T21:31:26;2.90;;;1.70;;
27642;SDS011;15053;48.618;10.024;2023-08-24T21:33:53;4.75;;;2.25;;
27642;SDS011;15053;48.618;10.024;2023-08-24T21:36:19;6.50;;;2.47;;
27642;SDS011;15053;48.618;10.024;2023-08-24T21:38:46;6.22;;;2.97;;
27642;SDS011;15053;48.618;10.024;2023-08-24T21:41:12;6.07;;;2.80;;
27642;SDS011;15053;48.618;10.024;2023-08-24T21:43:39;7.88;;;3.03;;
27642;SDS011;15053;48.618;10.024;2023-08-24T21:46:06;5.95;;;2.72;;
27642;SDS011;15053;48.618;10.024;2023-08-24T21:48:33;6.22;;;3.03;;
27642;SDS011;15053;48.618;10.024;2023-08-24T21:50:59;6.40;;;2.83;;
27642;SDS011;15053;48.618;10.024;2023-08-24T21:53:26;8.27;;;3.13;;
27642;SDS011;15053;48.618;10.024;2023-08-24T21:55:53;8.10;;;3.53;;
27642;SDS011;15053;48.618;10.024;2023-08-24T21:58:20;5.57;;;3.40;;
27642;SDS011;15053;48.618;10.024;2023-08-24T22:00:46;7.18;;;3.53;;
27642;SDS011;15053;48.618;10.024;2023-08-24T22:03:13;6.35;;;2.97;;
27642;SDS011;15053;48.618;10.024;2023-08-24T22:05:42;7.18;;;3.33;;
27642;SDS011;15053;48.618;10.024;2023-08-24T22:08:10;5.93;;;3.33;;
27642;SDS011;15053;48.618;10.024;2023-08-24T22:10:37;10.20;;;4.50;;
27642;SDS011;15053;48.618;10.024;2023-08-24T22:13:03;7.43;;;3.80;;
27642;SDS011;15053;48.618;10.024;2023-08-24T22:15:30;9.38;;;4.18;;
27642;SDS011;15053;48.618;10.024;2023-08-24T22:17:56;8.93;;;3.75;;
27642;SDS011;15053;48.618;10.024;2023-08-24T22:20:23;9.23;;;3.92;;
27642;SDS011;15053;48.618;10.024;2023-08-24T22:22:50;6.28;;;3.38;;
27642;SDS011;15053;48.618;10.024;2023-08-24T22:25:17;6.50;;;3.65;;
27642;SDS011;15053;48.618;10.024;2023-08-24T22:27:44;13.57;;;3.85;;
27642;SDS011;15053;48.618;10.024;2023-08-24T22:30:11;7.15;;;3.80;;
27642;SDS011;15053;48.618;10.024;2023-08-24T22:32:40;9.35;;;3.85;;
27642;SDS011;15053;48.618;10.024;2023-08-24T22:35:08;7.00;;;3.05;;
27642;SDS011;15053;48.618;10.024;2023-08-24T22:37:35;4.97;;;2.80;;
27642;SDS011;15053;48.618;10.024;2023-08-24T22:40:01;6.40;;;3.00;;
27642;SDS011;15053;48.618;10.024;2023-08-24T22:42:32;6.40;;;3.20;;
27642;SDS011;15053;48.618;10.024;2023-08-24T22:44:58;8.85;;;3.15;;
27642;SDS011;15053;48.618;10.024;2023-08-24T22:47:25;7.68;;;3.70;;
27642;SDS011;15053;48.618;10.024;2023-08-24T22:49:52;9.55;;;3.80;;
27642;SDS011;15053;48.618;10.024;2023-08-24T22:52:18;9.27;;;3.78;;
27642;SDS011;15053;48.618;10.024;2023-08-24T22:54:45;7.50;;;3.08;;
27642;SDS011;15053;48.618;10.024;2023-08-24T22:57:11;9.90;;;3.83;;
27642;SDS011;15053;48.618;10.024;2023-08-24T22:59:40;8.70;;;3.70;;